Time;durP1;ratioP1;P1;durP2;ratioP2;P2;SDS_P1;SDS_P2;PMS_P1;PMS_P2;Temp;Humidity;BMP_temperature;BMP_pressure;BME280_temperature;BME280_humidity;BME280_pressure;Samples;Min_cycle;Max_cycle;Signal;HPM_P1;HPM_P2
2022/01/10 00:01:36;;;;;;;12.35;7.45;;;3.40;99.90;;;;;;5029239;28;20029;-74
2022/01/10 00:04:01;;;;;;;9.10;7.25;;;3.40;99.90;;;;;;5014302;28;20389;-73
2022/01/10 00:06:27;;;;;;;9.65;7.13;;;3.50;99.90;;;;;;5013702;28;20026;-73
2022/01/10 00:08:52;;;;;;;12.00;7.18;;;3.50;99.90;;;;;;5014008;28;20077;-73
2022/01/10 00:11:18;;;;;;;10.05;8.30;;;3.40;99.90;;;;;;5013380;28;20022;-74
2022/01/10 00:13:43;;;;;;;10.93;8.35;;;3.30;99.90;;;;;;5013059;28;20022;-73
2022/01/10 00:16:09;;;;;;;11.55;7.68;;;3.30;99.90;;;;;;5013451;28;20018;-73
2022/01/10 00:18:35;;;;;;;12.18;8.60;;;3.30;99.90;;;;;;5013272;28;20041;-71
2022/01/10 00:21:00;;;;;;;9.93;8.18;;;3.30;99.90;;;;;;5013313;28;20113;-74
2022/01/10 00:23:26;;;;;;;14.15;8.13;;;3.20;99.90;;;;;;5013167;28;20042;-73
2022/01/10 00:25:51;;;;;;;12.55;8.18;;;3.20;99.90;;;;;;5013619;28;20033;-73
2022/01/10 00:28:17;;;;;;;12.85;7.82;;;3.20;99.90;;;;;;5013682;28;20386;-73
2022/01/10 00:30:42;;;;;;;12.68;8.82;;;3.20;99.90;;;;;;5013547;28;20477;-73
2022/01/10 00:33:08;;;;;;;12.73;9.68;;;3.20;99.90;;;;;;5028526;28;20034;-73
2022/01/10 00:35:33;;;;;;;13.05;9.27;;;3.20;99.90;;;;;;5013385;28;20382;-73
2022/01/10 00:37:59;;;;;;;14.23;8.85;;;3.20;99.90;;;;;;5013955;28;20026;-74
2022/01/10 00:40:24;;;;;;;10.35;7.80;;;3.20;99.90;;;;;;5015691;28;20425;-72
2022/01/10 00:42:55;;;;;;;11.48;7.15;;;3.40;99.90;;;;;;5014129;28;20030;-73
2022/01/10 00:45:25;;;;;;;9.00;7.13;;;3.40;99.90;;;;;;5015442;28;20014;-73
2022/01/10 00:47:53;;;;;;;10.65;7.85;;;3.30;99.90;;;;;;5015196;28;20033;-74
2022/01/10 00:50:19;;;;;;;13.43;7.60;;;3.30;99.90;;;;;;5016113;28;20041;-73
2022/01/10 00:52:45;;;;;;;10.73;7.22;;;3.30;99.90;;;;;;5018939;28;20069;-74
2022/01/10 00:55:11;;;;;;;8.50;7.43;;;3.30;99.90;;;;;;5018293;28;20030;-74
2022/01/10 00:57:38;;;;;;;15.88;7.07;;;3.20;99.90;;;;;;5017614;28;20018;-73
2022/01/10 01:00:08;;;;;;;9.65;7.10;;;3.20;99.90;;;;;;5017840;28;20022;-73
2022/01/10 01:02:34;;;;;;;11.52;6.80;;;3.20;99.90;;;;;;5033267;28;20054;-73
2022/01/10 01:05:01;;;;;;;11.18;7.78;;;3.20;99.90;;;;;;5017944;28;20080;-74
2022/01/10 01:07:27;;;;;;;9.95;7.35;;;3.20;99.90;;;;;;5017976;28;20482;-73
2022/01/10 01:10:06;;;;;;;12.57;7.78;;;3.30;99.90;;;;;;5018555;28;20041;-73
2022/01/10 01:12:46;;;;;;;10.40;7.63;;;3.30;99.90;;;;;;5033335;28;20033;-73
2022/01/10 01:15:19;;;;;;;10.93;7.45;;;3.40;99.90;;;;;;5018652;28;20084;-73
2022/01/10 01:18:16;;;;;;;13.15;8.35;;;3.30;99.90;;;;;;5018444;28;20030;-73
2022/01/10 01:24:00;;;;;;;11.07;8.02;;;3.20;99.90;;;;;;5018047;28;20477;-73
2022/01/10 01:26:14;;;;;;;9.50;7.50;;;3.20;99.90;;;;;;5031326;28;20049;-74
2022/01/10 01:28:40;;;;;;;11.40;8.75;;;3.20;99.90;;;;;;5018803;28;20022;-73
2022/01/10 01:31:05;;;;;;;13.98;9.35;;;3.20;99.90;;;;;;5023867;28;20112;-73
2022/01/10 01:33:31;;;;;;;13.18;9.63;;;3.10;99.90;;;;;;5021502;28;20056;-73
2022/01/10 01:35:56;;;;;;;12.02;9.23;;;3.20;99.90;;;;;;5018972;28;20393;-75
2022/01/10 01:38:24;;;;;;;11.80;8.57;;;3.10;99.90;;;;;;5018382;28;20021;-74
2022/01/10 01:41:10;;;;;;;17.70;11.55;;;3.10;99.90;;;;;;5036053;28;20446;-73
2022/01/10 01:43:36;;;;;;;9.85;8.60;;;3.20;99.90;;;;;;5021099;28;20032;-73
2022/01/10 01:46:01;;;;;;;12.57;9.15;;;3.20;99.90;;;;;;5020155;28;20086;-73
2022/01/10 01:48:27;;;;;;;16.23;8.88;;;3.20;99.90;;;;;;5019371;28;20038;-73
2022/01/10 01:50:52;;;;;;;11.05;7.50;;;3.20;99.90;;;;;;5019266;28;20568;-73
2022/01/10 01:53:18;;;;;;;8.40;7.45;;;3.20;99.90;;;;;;5019440;28;20030;-73
2022/01/10 01:55:45;;;;;;;11.07;7.40;;;3.30;99.90;;;;;;5018606;28;20029;-73
2022/01/10 01:58:10;;;;;;;14.05;7.90;;;3.40;99.90;;;;;;5018983;28;20030;-73
2022/01/10 02:00:36;;;;;;;9.57;7.10;;;3.40;99.90;;;;;;5038813;28;20036;-73
2022/01/10 02:03:02;;;;;;;9.35;7.95;;;3.40;99.90;;;;;;5031508;28;20030;-73
2022/01/10 02:05:27;;;;;;;13.30;8.88;;;3.50;99.90;;;;;;5031973;28;20081;-73
2022/01/10 02:07:53;;;;;;;15.95;9.10;;;3.50;99.90;;;;;;5033725;28;20036;-73
2022/01/10 02:10:19;;;;;;;9.95;7.57;;;3.40;99.90;;;;;;5028609;28;20026;-72
2022/01/10 02:12:44;;;;;;;9.75;7.43;;;3.40;99.90;;;;;;5020578;28;20034;-73
2022/01/10 02:15:32;;;;;;;12.65;7.65;;;3.50;99.90;;;;;;5017477;28;20371;-73
2022/01/10 02:18:00;;;;;;;8.80;7.45;;;3.40;99.90;;;;;;5017882;28;20029;-73
2022/01/10 02:20:31;;;;;;;11.68;9.18;;;3.40;99.90;;;;;;5017202;28;20105;-74
2022/01/10 02:22:57;;;;;;;12.50;8.35;;;3.30;99.90;;;;;;5016981;28;20021;-72
2022/01/10 02:25:22;;;;;;;9.68;8.38;;;3.20;99.90;;;;;;5016354;28;20033;-73
2022/01/10 02:27:48;;;;;;;18.65;9.77;;;3.20;99.90;;;;;;5016614;28;20022;-73
2022/01/10 02:30:15;;;;;;;13.25;9.07;;;3.20;99.90;;;;;;5017385;28;20022;-73
2022/01/10 02:32:40;;;;;;;12.82;9.63;;;3.30;99.90;;;;;;5017355;28;20029;-73
2022/01/10 02:35:21;;;;;;;12.70;8.43;;;3.30;99.90;;;;;;5015604;28;20018;-73
2022/01/10 02:37:48;;;;;;;13.02;8.32;;;3.40;99.90;;;;;;5034540;28;20026;-73
2022/01/10 02:40:15;;;;;;;12.63;9.10;;;3.40;99.90;;;;;;5018574;28;20045;-73
2022/01/10 02:42:40;;;;;;;10.50;8.27;;;3.40;99.90;;;;;;5017970;28;20441;-74
2022/01/10 02:45:06;;;;;;;12.40;8.73;;;3.50;99.90;;;;;;5019291;28;20017;-73
2022/01/10 02:47:32;;;;;;;14.93;9.10;;;3.40;99.90;;;;;;5019335;28;20025;-73
2022/01/10 02:49:58;;;;;;;14.18;9.60;;;3.40;99.90;;;;;;5038824;23;20124;-78
2022/01/10 02:52:24;;;;;;;11.75;8.80;;;3.40;99.90;;;;;;5015184;28;20034;-76
2022/01/10 02:54:49;;;;;;;12.52;9.05;;;3.40;99.90;;;;;;5014424;28;20115;-76
2022/01/10 02:57:15;;;;;;;10.38;8.55;;;3.40;99.90;;;;;;5015644;28;20025;-76
2022/01/10 02:59:42;;;;;;;13.00;9.50;;;3.40;99.90;;;;;;5015751;28;20075;-76
2022/01/10 03:02:09;;;;;;;14.65;9.05;;;3.40;99.90;;;;;;5016415;28;20026;-77
2022/01/10 03:04:35;;;;;;;10.40;9.07;;;3.40;99.90;;;;;;5038722;28;20026;-77
2022/01/10 03:07:01;;;;;;;14.98;9.40;;;3.40;99.90;;;;;;5019445;28;20501;-77
2022/01/10 03:09:26;;;;;;;12.15;9.32;;;3.40;99.90;;;;;;5020766;28;20029;-77
2022/01/10 03:11:53;;;;;;;15.70;9.85;;;3.40;99.90;;;;;;5017147;28;20030;-76
2022/01/10 03:14:19;;;;;;;14.25;10.00;;;3.40;99.90;;;;;;5017012;28;20026;-77
2022/01/10 03:16:46;;;;;;;10.55;9.45;;;3.40;99.90;;;;;;5016342;28;20041;-77
2022/01/10 03:19:11;;;;;;;16.35;10.32;;;3.40;99.90;;;;;;5023534;28;20072;-76
2022/01/10 03:21:37;;;;;;;13.68;8.95;;;3.40;99.90;;;;;;5031474;28;20034;-76
2022/01/10 03:24:03;;;;;;;16.40;10.07;;;3.50;99.90;;;;;;5046731;28;20049;-76
2022/01/10 03:26:29;;;;;;;14.00;9.45;;;3.50;99.90;;;;;;5028971;28;20026;-75
2022/01/10 03:28:55;;;;;;;12.80;10.02;;;3.40;99.90;;;;;;5024002;28;20113;-76
2022/01/10 03:31:21;;;;;;;11.55;9.18;;;3.40;99.90;;;;;;5016667;28;20022;-77
2022/01/10 03:33:46;;;;;;;11.80;9.55;;;3.40;99.90;;;;;;5016465;28;20029;-76
2022/01/10 03:36:13;;;;;;;12.77;9.50;;;3.40;99.90;;;;;;5016336;28;20145;-77
2022/01/10 03:38:39;;;;;;;10.88;8.27;;;3.50;99.90;;;;;;5030166;28;20026;-76
2022/01/10 03:41:05;;;;;;;13.82;9.05;;;3.40;99.90;;;;;;5032658;28;20026;-76
2022/01/10 03:43:30;;;;;;;15.98;8.68;;;3.40;99.90;;;;;;5035409;28;20037;-76
2022/01/10 03:45:57;;;;;;;15.95;9.13;;;3.50;99.90;;;;;;5035555;28;20037;-76
2022/01/10 03:48:22;;;;;;;11.25;8.93;;;3.50;99.90;;;;;;5043225;28;20378;-76
2022/01/10 03:50:48;;;;;;;12.60;8.60;;;3.50;99.90;;;;;;5028175;28;20036;-77
2022/01/10 03:53:13;;;;;;;12.65;9.10;;;3.50;99.90;;;;;;5028782;28;20137;-77
2022/01/10 03:55:39;;;;;;;12.70;9.68;;;3.50;99.90;;;;;;5013171;28;20493;-77
2022/01/10 03:58:05;;;;;;;14.98;8.65;;;3.50;99.90;;;;;;5016121;28;20061;-77
2022/01/10 04:00:30;;;;;;;12.20;9.10;;;3.50;99.90;;;;;;5014419;28;20030;-77
2022/01/10 04:03:02;;;;;;;14.15;9.45;;;3.50;99.90;;;;;;5028395;28;20062;-76
2022/01/10 04:05:27;;;;;;;13.68;8.98;;;3.50;99.90;;;;;;5013162;28;20022;-76
2022/01/10 04:07:53;;;;;;;13.35;8.35;;;3.50;99.90;;;;;;5013218;28;20029;-76
2022/01/10 04:10:18;;;;;;;11.02;7.57;;;3.50;99.90;;;;;;5019348;28;20026;-76
2022/01/10 04:12:44;;;;;;;13.90;7.45;;;3.50;99.90;;;;;;5020560;28;20026;-77
2022/01/10 04:15:10;;;;;;;11.90;6.82;;;3.50;99.90;;;;;;5016190;28;20026;-76
2022/01/10 04:17:36;;;;;;;13.38;8.38;;;3.50;99.90;;;;;;5014125;28;20478;-76
2022/01/10 04:20:04;;;;;;;9.70;6.95;;;3.50;99.90;;;;;;5013622;28;20066;-77
2022/01/10 04:22:30;;;;;;;9.07;5.15;;;3.60;99.90;;;;;;5011760;28;20069;-77
2022/01/10 04:24:55;;;;;;;10.23;5.75;;;3.70;99.90;;;;;;5014773;28;20390;-77
2022/01/10 04:27:21;;;;;;;6.63;5.75;;;3.80;99.90;;;;;;5015631;28;20022;-76
2022/01/10 04:29:46;;;;;;;9.15;6.28;;;3.70;99.90;;;;;;5017069;28;20536;-76
2022/01/10 04:32:12;;;;;;;9.32;5.13;;;3.60;99.90;;;;;;5031660;28;20058;-77
2022/01/10 04:34:39;;;;;;;9.77;5.82;;;3.50;99.90;;;;;;5016933;28;20409;-77
2022/01/10 04:37:05;;;;;;;8.90;5.75;;;3.50;99.90;;;;;;5031651;28;20398;-76
2022/01/10 04:39:30;;;;;;;11.55;6.85;;;3.50;99.90;;;;;;5024008;28;20009;-76
2022/01/10 04:41:56;;;;;;;8.82;5.25;;;3.60;99.90;;;;;;5055002;28;20037;-77
2022/01/10 04:44:22;;;;;;;9.00;4.88;;;3.70;99.90;;;;;;5054976;28;20077;-76
2022/01/10 04:46:47;;;;;;;9.30;5.22;;;3.70;99.90;;;;;;5038960;28;20022;-75
2022/01/10 04:49:21;;;;;;;9.45;5.13;;;3.70;99.90;;;;;;5020595;28;20034;-77
2022/01/10 04:51:48;;;;;;;9.75;5.50;;;3.70;99.90;;;;;;5032662;28;20088;-76
2022/01/10 04:54:14;;;;;;;9.35;6.18;;;3.60;99.90;;;;;;5032037;28;20037;-77
2022/01/10 04:56:40;;;;;;;8.70;5.45;;;3.50;99.90;;;;;;5017249;28;20033;-76
2022/01/10 04:59:05;;;;;;;10.43;6.57;;;3.50;99.90;;;;;;5032040;28;20022;-76
2022/01/10 05:01:31;;;;;;;7.50;5.60;;;3.40;99.90;;;;;;5030478;28;20094;-75
2022/01/10 05:03:56;;;;;;;16.42;6.60;;;3.50;99.90;;;;;;5040079;28;20029;-76
2022/01/10 05:06:22;;;;;;;10.25;5.90;;;3.50;99.90;;;;;;5017813;28;20097;-77
2022/01/10 05:08:47;;;;;;;14.15;7.88;;;3.50;99.90;;;;;;5017354;28;20087;-76
2022/01/10 05:11:13;;;;;;;8.85;6.95;;;3.40;99.90;;;;;;5016615;28;20037;-76
2022/01/10 05:13:39;;;;;;;11.50;8.20;;;3.40;99.90;;;;;;5016272;28;20395;-76
2022/01/10 05:16:05;;;;;;;11.32;7.43;;;3.50;99.90;;;;;;5016335;28;20025;-77
2022/01/10 05:18:31;;;;;;;11.35;7.47;;;3.50;99.90;;;;;;5015896;28;20101;-77
2022/01/10 05:20:56;;;;;;;12.18;7.20;;;3.50;99.90;;;;;;5031288;28;20022;-76
2022/01/10 05:23:22;;;;;;;11.77;6.93;;;3.50;99.90;;;;;;5015999;28;20040;-77
2022/01/10 05:25:48;;;;;;;12.88;8.05;;;3.60;99.90;;;;;;5016338;28;20505;-76
2022/01/10 05:28:17;;;;;;;13.20;7.93;;;3.50;99.90;;;;;;5016569;28;20022;-77
2022/01/10 05:30:43;;;;;;;12.40;9.43;;;3.50;99.90;;;;;;5033350;28;20049;-79
2022/01/10 05:33:09;;;;;;;13.32;8.88;;;3.50;99.90;;;;;;5018340;28;20424;-76
2022/01/10 05:35:36;;;;;;;15.32;10.07;;;3.40;99.90;;;;;;5016591;28;20101;-76
2022/01/10 05:38:02;;;;;;;12.15;7.70;;;3.40;99.90;;;;;;5016234;28;20113;-76
2022/01/10 05:40:28;;;;;;;14.70;7.70;;;3.40;99.90;;;;;;5016543;28;20449;-76
2022/01/10 05:42:53;;;;;;;11.18;7.63;;;3.50;99.90;;;;;;5017402;28;20415;-77
2022/01/10 05:45:19;;;;;;;11.70;8.00;;;3.70;99.90;;;;;;5015554;28;20030;-77
2022/01/10 05:47:46;;;;;;;11.43;7.45;;;3.70;99.90;;;;;;5015882;28;20026;-76
2022/01/10 05:50:14;;;;;;;10.45;8.18;;;3.60;99.90;;;;;;5031676;28;20029;-77
2022/01/10 05:52:40;;;;;;;12.80;8.38;;;3.60;99.90;;;;;;5015722;28;20030;-78
2022/01/10 05:55:06;;;;;;;12.65;8.32;;;3.60;99.90;;;;;;5016088;28;20405;-76
2022/01/10 05:57:32;;;;;;;16.55;9.15;;;3.70;99.90;;;;;;5016793;28;20073;-76
2022/01/10 05:59:57;;;;;;;16.60;9.27;;;3.80;99.90;;;;;;5016436;28;20088;-77
2022/01/10 06:02:23;;;;;;;11.30;8.38;;;3.90;99.90;;;;;;5033173;28;20093;-76
2022/01/10 06:04:49;;;;;;;12.20;7.97;;;4.00;99.90;;;;;;5053428;28;20037;-76
2022/01/10 06:07:14;;;;;;;12.77;8.75;;;4.00;99.90;;;;;;5034480;28;20037;-77
2022/01/10 06:09:40;;;;;;;19.38;9.38;;;3.90;99.90;;;;;;5033516;28;20064;-77
2022/01/10 06:12:06;;;;;;;18.60;10.13;;;3.90;99.90;;;;;;5034243;28;20030;-76
2022/01/10 06:14:32;;;;;;;17.85;9.00;;;3.80;99.90;;;;;;5036762;28;20142;-76
2022/01/10 06:16:58;;;;;;;13.43;9.10;;;3.90;99.90;;;;;;5025875;28;20054;-76
2022/01/10 06:19:23;;;;;;;12.95;10.77;;;4.00;99.90;;;;;;5016451;28;20029;-77
2022/01/10 06:21:49;;;;;;;11.95;8.77;;;4.10;99.90;;;;;;5016555;28;20030;-77
2022/01/10 06:24:15;;;;;;;13.02;8.95;;;3.90;99.90;;;;;;5016887;28;20025;-76
2022/01/10 06:26:40;;;;;;;16.08;9.73;;;3.90;99.90;;;;;;5016562;28;20022;-76
2022/01/10 06:29:06;;;;;;;17.48;9.88;;;3.90;99.90;;;;;;5015142;28;20091;-77
2022/01/10 06:31:32;;;;;;;17.50;10.60;;;3.90;99.90;;;;;;5020053;28;20022;-77
2022/01/10 06:33:57;;;;;;;12.25;10.75;;;3.80;99.90;;;;;;5016030;28;20028;-77
2022/01/10 06:36:23;;;;;;;20.42;10.15;;;3.60;99.90;;;;;;5017056;28;20026;-78
2022/01/10 06:38:48;;;;;;;19.67;11.00;;;3.50;99.90;;;;;;5016866;28;20478;-77
2022/01/10 06:41:14;;;;;;;18.00;11.63;;;3.40;99.90;;;;;;5018353;28;20046;-77
2022/01/10 06:43:39;;;;;;;18.15;12.73;;;3.40;99.90;;;;;;5019842;28;20481;-77
2022/01/10 06:46:06;;;;;;;15.40;11.48;;;3.50;99.90;;;;;;5016954;28;20022;-76
2022/01/10 06:48:32;;;;;;;15.90;12.05;;;3.70;99.90;;;;;;5017823;28;20033;-77
2022/01/10 06:50:59;;;;;;;18.58;11.77;;;3.70;99.90;;;;;;5018749;28;20038;-76
2022/01/10 06:53:24;;;;;;;20.42;11.90;;;3.50;99.90;;;;;;5024749;28;20030;-78
2022/01/10 06:55:50;;;;;;;18.73;12.30;;;3.30;99.90;;;;;;5022918;28;20040;-77
2022/01/10 06:58:16;;;;;;;22.70;13.48;;;3.30;99.90;;;;;;5020247;28;20021;-77
2022/01/10 07:00:43;;;;;;;16.65;12.60;;;3.30;99.90;;;;;;5022012;28;20072;-77
2022/01/10 07:03:09;;;;;;;18.10;12.98;;;3.40;99.90;;;;;;5024885;28;20049;-77
2022/01/10 07:05:34;;;;;;;20.98;13.15;;;3.40;99.90;;;;;;5028270;28;20030;-78
2022/01/10 07:08:00;;;;;;;22.70;12.75;;;3.40;99.90;;;;;;5023947;28;20034;-77
2022/01/10 07:10:26;;;;;;;19.70;11.68;;;3.40;99.90;;;;;;5025679;28;20033;-77
2022/01/10 07:12:52;;;;;;;18.05;13.00;;;3.40;99.90;;;;;;5024064;28;20034;-76
2022/01/10 07:15:18;;;;;;;26.02;12.50;;;3.40;99.90;;;;;;5022336;28;20029;-77
2022/01/10 07:17:44;;;;;;;25.80;12.98;;;3.40;99.90;;;;;;5018987;28;20029;-77
2022/01/10 07:20:10;;;;;;;22.52;12.80;;;3.50;99.90;;;;;;5019417;28;20041;-77
2022/01/10 07:22:35;;;;;;;14.48;10.88;;;3.40;99.90;;;;;;5022195;28;20026;-77
2022/01/10 07:25:02;;;;;;;17.50;11.48;;;3.40;99.90;;;;;;5020206;28;20025;-78
2022/01/10 07:27:28;;;;;;;18.40;10.55;;;3.70;99.90;;;;;;5019016;28;20113;-78
2022/01/10 07:29:53;;;;;;;15.90;11.23;;;3.90;99.90;;;;;;5018403;28;20045;-76
2022/01/10 07:32:19;;;;;;;15.57;9.95;;;4.00;99.90;;;;;;5019548;28;20036;-77
2022/01/10 07:34:45;;;;;;;14.98;9.23;;;4.00;99.90;;;;;;5018488;28;20374;-77
2022/01/10 07:37:10;;;;;;;14.05;10.10;;;3.90;99.90;;;;;;5018752;28;20401;-76
2022/01/10 07:39:36;;;;;;;13.95;9.95;;;3.90;99.90;;;;;;5019609;28;20036;-77
2022/01/10 07:42:02;;;;;;;18.13;11.95;;;3.90;99.90;;;;;;5020131;28;20030;-77
2022/01/10 07:44:28;;;;;;;15.65;10.73;;;3.70;99.90;;;;;;5021364;28;20053;-76
2022/01/10 07:46:55;;;;;;;14.55;10.40;;;3.80;99.90;;;;;;5018869;28;20560;-78
2022/01/10 07:49:21;;;;;;;17.98;12.27;;;3.70;99.90;;;;;;5015759;28;20034;-76
2022/01/10 07:51:46;;;;;;;16.20;11.32;;;3.80;99.90;;;;;;5015170;28;20171;-77
2022/01/10 07:54:12;;;;;;;20.65;13.88;;;3.80;99.90;;;;;;5015461;28;20528;-77
2022/01/10 07:56:38;;;;;;;17.30;13.50;;;3.60;99.90;;;;;;5016262;28;20105;-77
2022/01/10 07:59:04;;;;;;;15.88;13.68;;;3.60;99.90;;;;;;5016306;28;20108;-76
2022/01/10 08:01:29;;;;;;;21.90;14.50;;;3.50;99.90;;;;;;5017055;28;20033;-77
2022/01/10 08:03:55;;;;;;;22.80;14.05;;;3.40;99.90;;;;;;5013649;28;20032;-78
2022/01/10 08:06:22;;;;;;;24.45;15.23;;;3.40;99.90;;;;;;5014711;28;20029;-77
2022/01/10 08:08:48;;;;;;;22.38;15.98;;;3.40;99.90;;;;;;5014997;28;20397;-77
2022/01/10 08:11:14;;;;;;;24.48;18.42;;;3.30;99.90;;;;;;5014316;28;20028;-78
2022/01/10 08:13:41;;;;;;;26.30;16.17;;;3.20;99.90;;;;;;5016081;28;20034;-76
2022/01/10 08:16:07;;;;;;;29.50;16.40;;;3.30;99.90;;;;;;5016308;28;20449;-77
2022/01/10 08:18:34;;;;;;;27.88;16.20;;;3.30;99.90;;;;;;5014211;28;20033;-76
2022/01/10 08:21:00;;;;;;;23.35;15.85;;;3.40;99.90;;;;;;5014033;28;20025;-76
2022/01/10 08:23:27;;;;;;;19.70;15.50;;;3.50;99.90;;;;;;5017433;28;20026;-76
2022/01/10 08:25:53;;;;;;;23.98;15.48;;;3.80;99.90;;;;;;5017870;28;20105;-77
2022/01/10 08:28:18;;;;;;;27.65;17.35;;;3.90;99.90;;;;;;5015307;28;20502;-77
2022/01/10 08:30:44;;;;;;;22.45;15.70;;;3.90;99.90;;;;;;5013915;28;20026;-77
2022/01/10 08:33:10;;;;;;;23.48;15.43;;;3.90;99.90;;;;;;5016444;28;20394;-78
2022/01/10 08:35:35;;;;;;;22.63;15.73;;;3.80;99.90;;;;;;5019138;28;20112;-77
2022/01/10 08:38:01;;;;;;;22.52;16.25;;;4.00;99.90;;;;;;5018663;28;20034;-77
2022/01/10 08:40:27;;;;;;;21.60;14.68;;;4.10;99.90;;;;;;5016375;28;20445;-77
2022/01/10 08:42:53;;;;;;;23.85;15.20;;;4.20;99.90;;;;;;5015047;28;20030;-77
2022/01/10 08:45:18;;;;;;;19.48;14.57;;;4.00;99.90;;;;;;5018183;28;20026;-77
2022/01/10 08:47:45;;;;;;;21.40;14.38;;;4.10;99.90;;;;;;5017703;28;20029;-76
2022/01/10 08:50:12;;;;;;;20.92;14.85;;;4.00;99.90;;;;;;5013818;28;20114;-76
2022/01/10 08:52:39;;;;;;;17.95;14.02;;;4.00;99.90;;;;;;5015828;28;20053;-76
2022/01/10 08:55:08;;;;;;;22.17;14.25;;;3.80;99.90;;;;;;5012531;28;20053;-77
2022/01/10 08:57:34;;;;;;;22.27;14.48;;;3.70;99.90;;;;;;5015180;28;20022;-78
2022/01/10 08:59:59;;;;;;;19.17;14.57;;;3.70;99.90;;;;;;5013945;28;20053;-77
2022/01/10 09:02:25;;;;;;;20.10;15.00;;;4.10;99.90;;;;;;5013428;28;20084;-77
2022/01/10 09:04:50;;;;;;;20.55;14.73;;;4.40;99.90;;;;;;5013852;28;20024;-78
2022/01/10 09:07:16;;;;;;;18.83;13.68;;;4.50;99.90;;;;;;5013779;28;20025;-78
2022/01/10 09:09:42;;;;;;;20.65;14.07;;;4.60;99.90;;;;;;5015281;28;20060;-78
2022/01/10 09:12:08;;;;;;;23.08;15.10;;;4.60;99.90;;;;;;5018983;28;20076;-77
2022/01/10 09:14:34;;;;;;;16.75;13.80;;;4.50;99.90;;;;;;5017614;28;20113;-77
2022/01/10 09:16:59;;;;;;;19.48;14.32;;;4.60;99.90;;;;;;5019241;28;20083;-79
2022/01/10 09:19:26;;;;;;;22.63;14.30;;;4.50;99.90;;;;;;5019639;28;20022;-77
2022/01/10 09:21:51;;;;;;;20.88;13.35;;;4.60;99.90;;;;;;5031719;28;20030;-77
2022/01/10 09:24:17;;;;;;;20.42;14.05;;;4.70;99.90;;;;;;5019600;28;20496;-77
2022/01/10 09:26:42;;;;;;;21.63;13.50;;;4.60;99.90;;;;;;5017607;28;20022;-77
2022/01/10 09:29:08;;;;;;;23.55;14.35;;;4.50;99.90;;;;;;5018789;28;20100;-76
2022/01/10 09:31:34;;;;;;;18.40;13.27;;;4.30;99.90;;;;;;5018582;28;20509;-77
2022/01/10 09:34:00;;;;;;;21.95;13.20;;;4.40;99.90;;;;;;5017867;28;20022;-77
2022/01/10 09:36:28;;;;;;;30.92;15.57;;;4.70;99.90;;;;;;5022170;28;20052;-76
2022/01/10 09:38:55;;;;;;;20.80;13.55;;;4.60;99.90;;;;;;5027624;28;20018;-77
2022/01/10 09:41:21;;;;;;;16.92;11.88;;;4.70;99.90;;;;;;5026985;28;20022;-76
2022/01/10 09:43:53;;;;;;;20.90;12.45;;;4.80;99.90;;;;;;5027490;28;20053;-76
2022/01/10 09:46:19;;;;;;;14.55;11.52;;;4.80;99.90;;;;;;5021269;28;20024;-76
2022/01/10 09:48:45;;;;;;;17.30;12.07;;;4.70;99.90;;;;;;5016053;28;20392;-76
2022/01/10 09:51:11;;;;;;;18.88;12.05;;;4.60;99.90;;;;;;5016959;28;20382;-77
2022/01/10 09:53:37;;;;;;;16.90;12.35;;;4.90;99.90;;;;;;5019019;28;20026;-77
2022/01/10 09:56:03;;;;;;;20.15;12.60;;;5.10;99.90;;;;;;5022067;28;20041;-77
2022/01/10 09:58:28;;;;;;;17.92;13.52;;;5.20;99.90;;;;;;5035078;28;20080;-76
2022/01/10 10:00:57;;;;;;;23.25;11.77;;;5.10;99.90;;;;;;5035223;28;20029;-76
2022/01/10 10:03:24;;;;;;;19.38;12.75;;;5.30;99.90;;;;;;5034907;28;20026;-77
2022/01/10 10:05:57;;;;;;;17.85;14.23;;;5.30;99.90;;;;;;5031215;28;20020;-77
2022/01/10 10:08:25;;;;;;;22.90;13.15;;;5.30;99.90;;;;;;5019628;28;20034;-77
2022/01/10 10:10:52;;;;;;;15.38;12.00;;;5.50;99.90;;;;;;5017587;28;20022;-77
2022/01/10 10:13:18;;;;;;;20.35;12.80;;;5.60;99.90;;;;;;5017407;28;20064;-77
2022/01/10 10:15:45;;;;;;;14.55;12.02;;;5.20;99.90;;;;;;5020396;28;20030;-77
2022/01/10 10:18:16;;;;;;;23.52;12.52;;;4.80;99.90;;;;;;5017577;28;20026;-77
2022/01/10 10:20:43;;;;;;;23.42;12.38;;;5.00;99.90;;;;;;5016488;28;20476;-77
2022/01/10 10:23:14;;;;;;;17.58;12.13;;;5.20;99.90;;;;;;5015524;28;20030;-77
2022/01/10 10:25:57;;;;;;;17.63;12.68;;;5.30;99.90;;;;;;5015999;28;20033;-77
2022/01/10 10:28:23;;;;;;;18.48;12.65;;;5.50;99.90;;;;;;5016685;28;20056;-78
2022/01/10 10:30:55;;;;;;;17.13;10.40;;;5.40;99.90;;;;;;5016919;28;20021;-77
2022/01/10 10:33:23;;;;;;;14.00;9.82;;;5.30;99.90;;;;;;5016549;28;20038;-77
2022/01/10 10:36:08;;;;;;;15.15;10.30;;;5.60;99.90;;;;;;5031725;28;20033;-77
2022/01/10 10:38:34;;;;;;;16.58;10.63;;;5.60;99.90;;;;;;5015119;28;20022;-77
2022/01/10 10:41:02;;;;;;;18.02;9.82;;;5.70;99.90;;;;;;5017107;28;20042;-77
2022/01/10 10:43:32;;;;;;;20.15;9.23;;;5.60;99.90;;;;;;5034552;28;20022;-77
2022/01/10 10:46:02;;;;;;;15.07;10.73;;;5.80;99.90;;;;;;5017861;28;20022;-77
2022/01/10 10:48:29;;;;;;;14.20;7.47;;;5.90;99.90;;;;;;5016933;28;20102;-78
2022/01/10 10:50:59;;;;;;;11.88;8.23;;;5.90;99.90;;;;;;5016884;28;20045;-77
2022/01/10 10:53:27;;;;;;;15.77;9.68;;;6.00;99.90;;;;;;5016313;28;20676;-78
2022/01/10 10:55:56;;;;;;;17.85;9.40;;;6.00;99.90;;;;;;5015898;28;20093;-77
2022/01/10 10:58:22;;;;;;;14.80;10.00;;;6.00;99.90;;;;;;5031503;28;20121;-76
2022/01/10 11:00:47;;;;;;;11.55;9.57;;;5.90;99.90;;;;;;5016102;28;20481;-77
2022/01/10 11:03:15;;;;;;;20.63;11.05;;;5.90;99.90;;;;;;5017385;28;20029;-77
2022/01/10 11:05:44;;;;;;;13.15;10.23;;;6.00;99.90;;;;;;5018590;28;20034;-77
2022/01/10 11:08:10;;;;;;;21.55;13.00;;;5.80;99.90;;;;;;5022330;28;20456;-76
2022/01/10 11:10:38;;;;;;;16.58;12.15;;;5.80;99.90;;;;;;5025099;28;20022;-78
2022/01/10 11:13:04;;;;;;;16.83;10.30;;;5.60;99.90;;;;;;5020847;28;20424;-77
2022/01/10 11:15:31;;;;;;;15.80;9.07;;;5.90;99.90;;;;;;5019667;28;20029;-77
2022/01/10 11:18:01;;;;;;;14.90;8.43;;;5.90;99.90;;;;;;5018350;28;20033;-77
2022/01/10 11:20:28;;;;;;;10.75;8.70;;;5.90;99.90;;;;;;5015761;28;20026;-77
2022/01/10 11:22:57;;;;;;;16.52;8.88;;;6.00;99.90;;;;;;5031667;28;20029;-77
2022/01/10 11:25:27;;;;;;;12.23;8.13;;;5.80;99.90;;;;;;5019125;28;20029;-76
2022/01/10 11:27:55;;;;;;;14.10;8.50;;;5.80;99.90;;;;;;5019218;28;20141;-76
2022/01/10 11:30:38;;;;;;;14.02;8.32;;;5.60;99.90;;;;;;5017940;28;20482;-77
2022/01/10 11:33:16;;;;;;;13.68;6.75;;;5.70;99.90;;;;;;5032820;28;20030;-76
2022/01/10 11:35:44;;;;;;;11.57;7.00;;;6.00;99.90;;;;;;5018039;28;20045;-78
2022/01/10 11:38:34;;;;;;;12.80;7.57;;;6.40;99.90;;;;;;5033434;28;20475;-76
2022/01/10 11:41:05;;;;;;;22.83;9.30;;;6.70;99.90;;;;;;5033451;28;20033;-77
2022/01/10 11:43:32;;;;;;;13.25;8.95;;;7.00;99.90;;;;;;5017441;28;20034;-78
2022/01/10 11:46:15;;;;;;;17.50;8.40;;;7.00;99.90;;;;;;5033202;28;20304;-77
2022/01/10 11:49:10;;;;;;;13.50;9.10;;;6.90;99.90;;;;;;5017505;28;20033;-77
2022/01/10 11:51:37;;;;;;;13.45;8.30;;;6.80;99.90;;;;;;5012728;28;20034;-77
2022/01/10 11:54:09;;;;;;;14.15;8.77;;;7.40;99.90;;;;;;5032061;28;20114;-77
2022/01/10 11:56:37;;;;;;;9.85;7.97;;;7.00;99.90;;;;;;5023155;28;20052;-76
2022/01/10 11:59:06;;;;;;;14.18;8.18;;;6.70;99.90;;;;;;5028637;28;20050;-77
2022/01/10 12:01:34;;;;;;;12.77;7.97;;;7.00;99.90;;;;;;5039257;28;20390;-77
2022/01/10 12:04:00;;;;;;;19.60;8.98;;;6.80;99.90;;;;;;5021530;28;20061;-78
2022/01/10 12:06:26;;;;;;;10.60;8.68;;;6.20;99.90;;;;;;5025547;28;20029;-77
2022/01/10 12:08:54;;;;;;;15.43;9.50;;;6.10;99.90;;;;;;5019296;28;20025;-77
2022/01/10 12:11:25;;;;;;;12.98;9.10;;;6.10;99.90;;;;;;5018905;28;20041;-77
2022/01/10 12:13:52;;;;;;;12.57;8.32;;;6.00;99.90;;;;;;5018047;28;20034;-77
2022/01/10 12:16:18;;;;;;;17.98;9.55;;;6.20;99.90;;;;;;5017468;28;20030;-77
2022/01/10 12:18:45;;;;;;;18.30;10.05;;;5.90;99.90;;;;;;5019088;28;20502;-77
2022/01/10 12:21:10;;;;;;;16.45;10.98;;;6.00;99.90;;;;;;5016668;28;20148;-77
2022/01/10 12:23:36;;;;;;;16.63;10.77;;;6.10;99.90;;;;;;5018437;28;20517;-78
2022/01/10 12:26:02;;;;;;;14.30;10.40;;;6.00;99.90;;;;;;5018513;28;20030;-77
2022/01/10 12:28:28;;;;;;;15.27;10.25;;;6.00;99.90;;;;;;5016841;28;20018;-77
2022/01/10 12:30:57;;;;;;;16.45;10.90;;;6.10;99.90;;;;;;5020199;28;20030;-77
2022/01/10 12:33:22;;;;;;;15.60;10.18;;;6.20;99.90;;;;;;5021909;28;20037;-77
2022/01/10 12:35:48;;;;;;;19.20;11.73;;;6.10;99.90;;;;;;5021539;28;20026;-76
2022/01/10 12:38:18;;;;;;;17.00;11.60;;;6.00;99.90;;;;;;5020714;28;20034;-77
2022/01/10 12:40:44;;;;;;;20.33;11.35;;;5.90;99.90;;;;;;5020201;28;20026;-77
2022/01/10 12:43:09;;;;;;;17.90;10.98;;;5.90;99.90;;;;;;5021479;28;20176;-79
2022/01/10 12:45:35;;;;;;;16.63;11.23;;;6.20;99.90;;;;;;5022120;28;20468;-79